Time;durP1;ratioP1;P1;durP2;ratioP2;P2;SDS_P1;SDS_P2;PMS_P1;PMS_P2;Temp;Humidity;BMP_temperature;BMP_pressure;BME280_temperature;BME280_humidity;BME280_pressure;Samples;Min_cycle;Max_cycle;Signal;HPM_P1;HPM_P2
2021/03/09 00:00:36;;;;;;;12.30;8.67;;;;;;;-2.85;75.02;95702.09;5030467;28;20209;-75
2021/03/09 00:03:02;;;;;;;13.33;8.77;;;;;;;-2.86;74.46;95692.81;5038844;28;20185;-75
2021/03/09 00:05:27;;;;;;;14.23;8.80;;;;;;;-2.87;74.69;95703.06;5039011;28;20216;-75
2021/03/09 00:07:52;;;;;;;12.83;8.83;;;;;;;-2.89;74.87;95687.88;5043614;28;20197;-73
2021/03/09 00:10:18;;;;;;;13.00;9.23;;;;;;;-2.91;74.78;95693.91;5026164;28;20204;-74
2021/03/09 00:12:43;;;;;;;11.10;8.77;;;;;;;-2.91;75.21;95691.38;5042563;28;20219;-74
2021/03/09 00:15:09;;;;;;;12.00;7.53;;;;;;;-2.81;74.26;95694.38;5028607;28;20183;-74
2021/03/09 00:17:34;;;;;;;12.63;8.30;;;;;;;-2.90;74.34;95688.78;5045117;28;20180;-75
2021/03/09 00:20:01;;;;;;;13.23;8.60;;;;;;;-2.89;75.23;95687.88;5044366;28;20224;-74
2021/03/09 00:22:26;;;;;;;11.77;8.87;;;;;;;-2.91;74.73;95687.13;5030946;28;20186;-76
2021/03/09 00:24:51;;;;;;;12.10;8.47;;;;;;;-2.91;75.28;95688.84;5021326;28;20559;-74
2021/03/09 00:27:16;;;;;;;12.50;8.07;;;;;;;-2.93;75.05;95681.25;5015203;28;20194;-73
2021/03/09 00:29:42;;;;;;;12.77;8.10;;;;;;;-2.93;74.75;95688.03;5038785;28;20218;-76
2021/03/09 00:32:08;;;;;;;14.03;8.57;;;;;;;-2.96;74.99;95688.19;5046268;28;20260;-75
2021/03/09 00:34:34;;;;;;;12.20;8.47;;;;;;;-2.98;75.33;95682.34;5028594;28;20243;-75
2021/03/09 00:36:59;;;;;;;11.83;8.33;;;;;;;-2.95;75.74;95677.13;5041210;28;20647;-75
2021/03/09 00:39:25;;;;;;;13.07;9.20;;;;;;;-2.96;75.32;95672.94;5023788;28;20244;-75
2021/03/09 00:41:50;;;;;;;13.43;9.03;;;;;;;-3.02;75.58;95675.72;5042589;28;20212;-75
2021/03/09 00:44:15;;;;;;;12.60;8.90;;;;;;;-3.04;75.66;95682.59;4999972;28;20672;-75
2021/03/09 00:46:41;;;;;;;14.33;8.77;;;;;;;-2.99;75.45;95676.44;5031164;28;20193;-75
2021/03/09 00:49:06;;;;;;;11.30;7.30;;;;;;;-3.01;75.89;95682.44;5026040;28;20217;-75
2021/03/09 00:51:31;;;;;;;11.83;8.77;;;;;;;-3.05;76.28;95675.84;5036895;28;20199;-75
2021/03/09 00:53:57;;;;;;;10.53;7.93;;;;;;;-3.03;75.83;95685.06;5033246;28;20513;-75
2021/03/09 00:56:22;;;;;;;12.87;7.67;;;;;;;-3.03;76.25;95674.06;5031210;28;20181;-75
2021/03/09 00:58:47;;;;;;;11.77;7.90;;;;;;;-3.01;75.76;95678.19;5026557;28;20221;-75
2021/03/09 01:01:13;;;;;;;13.80;7.93;;;;;;;-3.04;76.23;95678.34;5020780;28;20227;-75
2021/03/09 01:03:38;;;;;;;10.17;8.03;;;;;;;-3.02;75.56;95676.53;5022159;28;20221;-75
2021/03/09 01:06:03;;;;;;;11.93;8.30;;;;;;;-2.99;76.18;95670.53;5030334;28;20179;-76
2021/03/09 01:08:29;;;;;;;11.90;7.63;;;;;;;-3.01;75.89;95675.66;5031044;28;20264;-75
2021/03/09 01:10:54;;;;;;;10.23;7.43;;;;;;;-3.00;75.95;95676.50;5022257;28;20191;-75
2021/03/09 01:13:19;;;;;;;12.23;8.53;;;;;;;-3.01;76.20;95675.66;5023927;28;20207;-75
2021/03/09 01:15:44;;;;;;;12.90;8.13;;;;;;;-3.02;76.04;95668.09;5033413;28;20755;-75
2021/03/09 01:18:10;;;;;;;12.70;8.10;;;;;;;-3.01;76.00;95667.22;5029945;28;20191;-75
2021/03/09 01:20:35;;;;;;;11.60;7.57;;;;;;;-3.06;76.22;95662.34;5015505;28;20215;-75
2021/03/09 01:23:00;;;;;;;11.63;8.10;;;;;;;-2.97;75.17;95666.22;5025453;28;20315;-75
2021/03/09 01:25:26;;;;;;;11.97;7.90;;;;;;;-3.05;76.17;95660.63;5015239;28;20185;-75
2021/03/09 01:27:51;;;;;;;13.17;8.10;;;;;;;-3.01;75.80;95655.31;5042115;28;20210;-75
2021/03/09 01:30:18;;;;;;;12.50;8.57;;;;;;;-3.04;75.75;95655.47;5031323;28;20496;-75
2021/03/09 01:32:43;;;;;;;10.60;7.70;;;;;;;-2.98;75.10;95660.31;5031276;28;20258;-75
2021/03/09 01:35:09;;;;;;;14.10;7.87;;;;;;;-3.02;75.91;95650.31;5020540;28;20178;-75
2021/03/09 01:37:34;;;;;;;11.77;8.03;;;;;;;-3.06;75.66;95646.25;5027146;28;20184;-75
2021/03/09 01:39:59;;;;;;;14.20;8.73;;;;;;;-3.06;75.65;95643.72;5042401;28;20216;-75
2021/03/09 01:42:25;;;;;;;9.83;7.43;;;;;;;-3.01;75.76;95642.63;5031873;28;20249;-75
2021/03/09 01:44:50;;;;;;;13.57;7.50;;;;;;;-3.04;76.29;95642.75;5041613;28;20180;-75
2021/03/09 01:47:17;;;;;;;14.57;9.03;;;;;;;-3.09;75.70;95636.22;5018914;28;20182;-75
2021/03/09 01:49:43;;;;;;;14.07;8.47;;;;;;;-3.07;75.85;95637.00;5026428;28;20188;-75
2021/03/09 01:52:09;;;;;;;13.17;8.90;;;;;;;-3.06;75.68;95631.03;5030560;28;20558;-75
2021/03/09 01:54:36;;;;;;;12.20;8.00;;;;;;;-3.06;75.58;95626.75;5016151;28;20179;-75
2021/03/09 01:57:01;;;;;;;14.13;8.93;;;;;;;-3.10;75.62;95627.75;5030632;28;20211;-75
2021/03/09 01:59:27;;;;;;;14.13;8.43;;;;;;;-3.13;75.93;95626.19;5030486;28;20290;-75
2021/03/09 02:01:53;;;;;;;13.00;8.07;;;;;;;-3.03;75.49;95620.72;5033152;28;20252;-75
2021/03/09 02:04:18;;;;;;;12.63;8.80;;;;;;;-3.08;75.86;95620.09;5023098;28;20272;-75
2021/03/09 02:06:44;;;;;;;13.97;8.80;;;;;;;-3.08;76.43;95623.47;5025595;28;20599;-75
2021/03/09 02:09:10;;;;;;;14.90;9.00;;;;;;;-3.09;76.01;95615.88;5026030;28;20179;-75
2021/03/09 02:11:47;;;;;;;13.70;9.60;;;;;;;-3.10;75.90;95619.31;5028830;28;20751;-75
2021/03/09 02:14:18;;;;;;;15.80;9.87;;;;;;;-3.07;75.73;95616.66;5044146;28;20546;-75
2021/03/09 02:16:51;;;;;;;12.67;8.97;;;;;;;-3.08;75.55;95610.75;5013630;28;20191;-75
2021/03/09 02:19:56;;;;;;;16.47;9.60;;;;;;;-3.16;76.43;95618.69;5035734;28;20198;-75
2021/03/09 02:22:24;;;;;;;13.40;9.03;;;;;;;-3.18;76.11;95609.47;5028721;28;20256;-75
2021/03/09 02:25:04;;;;;;;15.03;8.83;;;;;;;-3.13;76.03;95605.84;5018688;28;20182;-75
2021/03/09 02:27:38;;;;;;;13.03;8.93;;;;;;;-3.18;75.87;95600.16;5019320;28;20181;-75
2021/03/09 02:30:12;;;;;;;13.57;9.37;;;;;;;-3.20;76.41;95603.63;5015102;28;20278;-75
2021/03/09 02:32:55;;;;;;;13.07;9.37;;;;;;;-3.24;76.14;95600.41;5016408;28;20222;-75
2021/03/09 02:35:23;;;;;;;14.63;8.97;;;;;;;-3.21;76.03;95589.28;5021514;28;20203;-75
2021/03/09 02:37:50;;;;;;;13.60;9.53;;;;;;;-3.21;76.58;95595.19;5000233;28;20187;-75
2021/03/09 02:40:16;;;;;;;16.93;9.80;;;;;;;-3.22;76.26;95593.53;5025100;28;20211;-75
2021/03/09 02:42:46;;;;;;;17.50;10.37;;;;;;;-3.21;76.67;95589.28;5041836;28;20684;-74
2021/03/09 02:45:13;;;;;;;13.67;10.03;;;;;;;-3.21;76.73;95592.66;5037897;28;20185;-75
2021/03/09 02:47:39;;;;;;;15.73;10.77;;;;;;;-3.19;76.51;95588.31;5025264;28;20278;-75
2021/03/09 02:50:05;;;;;;;17.67;10.33;;;;;;;-3.20;77.14;95584.13;5043661;28;20722;-75
2021/03/09 02:52:31;;;;;;;15.30;10.60;;;;;;;-3.17;76.83;95585.75;5010435;28;20231;-75
2021/03/09 02:54:57;;;;;;;15.97;10.30;;;;;;;-3.22;76.80;95580.84;5034503;28;20216;-75
2021/03/09 02:57:23;;;;;;;15.00;10.23;;;;;;;-3.18;76.59;95586.59;5019702;28;20210;-74
2021/03/09 02:59:49;;;;;;;15.13;10.57;;;;;;;-3.23;76.46;95579.19;5013319;28;20218;-75
2021/03/09 03:02:17;;;;;;;15.33;10.30;;;;;;;-3.22;76.54;95583.38;5027193;28;20191;-75
2021/03/09 03:04:43;;;;;;;14.97;10.73;;;;;;;-3.24;77.02;95580.09;5033459;28;20215;-74
2021/03/09 03:07:11;;;;;;;17.63;11.03;;;;;;;-3.21;77.02;95579.94;5024957;28;20707;-75
2021/03/09 03:09:37;;;;;;;15.23;10.97;;;;;;;-3.15;77.02;95582.25;5040978;28;20173;-74
2021/03/09 03:12:02;;;;;;;17.57;11.13;;;;;;;-3.19;77.03;95577.34;5040857;28;20722;-75
2021/03/09 03:14:27;;;;;;;16.30;10.97;;;;;;;-3.21;77.23;95579.94;5013805;28;20216;-74
2021/03/09 03:16:53;;;;;;;15.37;10.87;;;;;;;-3.21;76.41;95579.13;5029617;28;20187;-75
2021/03/09 03:19:20;;;;;;;15.37;10.53;;;;;;;-3.24;77.30;95569.94;5011792;28;20337;-75
2021/03/09 03:21:45;;;;;;;18.07;11.63;;;;;;;-3.22;76.96;95574.94;5017344;28;20198;-74
2021/03/09 03:24:12;;;;;;;17.57;11.57;;;;;;;-3.19;77.17;95578.16;5026307;28;20780;-75
2021/03/09 03:26:42;;;;;;;20.07;11.83;;;;;;;-3.20;77.11;95566.34;5041572;28;20180;-74
2021/03/09 03:29:09;;;;;;;18.03;12.20;;;;;;;-3.17;77.27;95571.34;5011647;28;20180;-74
2021/03/09 03:31:34;;;;;;;16.03;11.90;;;;;;;-3.19;76.89;95568.00;5028634;28;20289;-74
2021/03/09 03:34:00;;;;;;;16.40;11.93;;;;;;;-3.20;77.36;95573.97;5013314;28;20266;-75
2021/03/09 03:36:25;;;;;;;15.97;11.27;;;;;;;-3.24;77.51;95564.84;5011870;28;20226;-75
2021/03/09 03:38:50;;;;;;;17.17;11.27;;;;;;;-3.19;77.29;95573.09;4995220;28;20206;-75
2021/03/09 03:41:16;;;;;;;19.80;11.83;;;;;;;-3.20;77.06;95571.44;5029689;28;20645;-74
2021/03/09 03:43:41;;;;;;;17.23;11.60;;;;;;;-3.19;77.73;95568.00;5022842;28;20198;-75
2021/03/09 03:46:07;;;;;;;18.27;11.43;;;;;;;-3.23;77.41;95566.50;5029336;28;20670;-75
2021/03/09 03:48:36;;;;;;;16.40;11.77;;;;;;;-3.24;77.85;95572.47;5028532;28;20259;-74
2021/03/09 03:51:04;;;;;;;17.70;11.57;;;;;;;-3.24;77.51;95569.94;5027261;28;20209;-75
2021/03/09 03:53:50;;;;;;;18.93;11.50;;;;;;;-3.22;77.26;95572.41;5025289;28;20188;-74
2021/03/09 03:56:40;;;;;;;18.47;11.90;;;;;;;-3.23;77.48;95565.69;5000964;28;20189;-74
2021/03/09 03:59:08;;;;;;;17.63;11.83;;;;;;;-3.28;77.58;95568.38;5029153;28;20184;-75
2021/03/09 04:01:35;;;;;;;21.73;12.47;;;;;;;-3.27;78.05;95567.53;5036001;28;20865;-75
2021/03/09 04:04:05;;;;;;;20.07;12.17;;;;;;;-3.29;77.99;95568.47;5030531;28;20181;-75
2021/03/09 04:06:31;;;;;;;18.53;11.83;;;;;;;-3.33;77.74;95557.63;5028576;28;20683;-75
2021/03/09 04:09:00;;;;;;;18.53;12.30;;;;;;;-3.27;78.08;95556.50;5044733;28;20260;-74
2021/03/09 04:11:26;;;;;;;18.80;12.37;;;;;;;-3.21;78.22;95562.16;5001984;28;20266;-75
2021/03/09 04:13:52;;;;;;;17.60;12.60;;;;;;;-3.15;78.20;95564.47;5041120;28;20186;-75
2021/03/09 04:16:18;;;;;;;19.90;12.80;;;;;;;-3.12;78.09;95560.97;5039515;28;20717;-75
2021/03/09 04:18:44;;;;;;;16.73;11.77;;;;;;;-3.19;77.91;95555.31;5044936;28;20184;-75
2021/03/09 04:21:10;;;;;;;17.90;12.53;;;;;;;-3.21;78.14;95553.72;5036887;28;20664;-74
2021/03/09 04:23:36;;;;;;;20.63;12.87;;;;;;;-3.20;78.26;95560.47;5038862;28;20214;-74
2021/03/09 04:26:02;;;;;;;19.80;13.47;;;;;;;-3.14;78.30;95560.22;5033994;28;20187;-75
2021/03/09 04:28:27;;;;;;;19.63;12.33;;;;;;;-3.07;78.11;95563.31;5029325;28;20666;-74
2021/03/09 04:30:53;;;;;;;20.10;12.13;;;;;;;-3.18;78.25;95554.44;5039022;28;20202;-75
2021/03/09 04:33:18;;;;;;;17.27;12.03;;;;;;;-3.21;78.07;95554.56;5036952;28;20175;-75
2021/03/09 04:35:44;;;;;;;21.33;13.53;;;;;;;-3.11;78.41;95554.16;5017577;28;20227;-75
2021/03/09 04:38:10;;;;;;;17.33;12.97;;;;;;;-3.15;78.05;95556.03;5029320;28;20187;-77
2021/03/09 04:40:36;;;;;;;21.17;13.30;;;;;;;-3.20;78.13;95558.75;5014174;28;20208;-75
2021/03/09 04:43:02;;;;;;;19.60;12.47;;;;;;;-3.10;78.30;95551.56;5005052;28;20245;-75
2021/03/09 04:45:28;;;;;;;17.70;12.67;;;;;;;-3.20;78.38;95546.03;5021844;28;20536;-75
2021/03/09 04:47:53;;;;;;;19.57;12.60;;;;;;;-3.22;78.61;95547.81;5026771;28;20267;-74
2021/03/09 04:50:19;;;;;;;18.17;12.10;;;;;;;-3.19;78.33;95549.41;5018073;28;20288;-75
2021/03/09 04:52:47;;;;;;;15.93;11.80;;;;;;;-3.17;78.50;95557.81;5044339;28;20189;-74
2021/03/09 04:55:20;;;;;;;18.40;12.83;;;;;;;-3.24;78.01;95552.16;5022427;28;20234;-74
2021/03/09 04:57:46;;;;;;;17.37;12.47;;;;;;;-3.26;77.94;95551.41;5020642;28;20190;-74
2021/03/09 05:00:19;;;;;;;19.43;12.53;;;;;;;-3.28;78.52;95554.88;5017327;28;20284;-75
2021/03/09 05:02:46;;;;;;;20.87;13.27;;;;;;;-3.13;78.85;95552.50;5032799;28;20186;-74
2021/03/09 05:05:12;;;;;;;19.37;12.43;;;;;;;-3.14;78.15;95555.94;5027314;28;20280;-74
2021/03/09 05:07:38;;;;;;;18.87;13.50;;;;;;;-3.23;78.67;95555.50;5024574;28;20185;-74
2021/03/09 05:10:04;;;;;;;15.97;12.07;;;;;;;-3.28;78.50;95555.69;5022759;28;20210;-74
2021/03/09 05:12:30;;;;;;;17.53;12.50;;;;;;;-3.28;78.78;95559.94;5025340;28;20233;-74
2021/03/09 05:14:56;;;;;;;17.83;12.70;;;;;;;-3.31;78.59;95557.56;5006484;28;20183;-74
2021/03/09 05:17:21;;;;;;;20.43;13.87;;;;;;;-3.36;79.19;95560.25;5031686;28;20188;-74
2021/03/09 05:19:46;;;;;;;20.00;12.77;;;;;;;-3.36;79.05;95557.72;5025726;28;20203;-75
2021/03/09 05:22:12;;;;;;;19.30;13.13;;;;;;;-3.34;78.97;95553.44;5017006;28;20523;-75
2021/03/09 05:24:37;;;;;;;18.70;12.77;;;;;;;-3.35;78.83;95566.19;5027108;28;20187;-75
2021/03/09 05:27:04;;;;;;;20.17;13.03;;;;;;;-3.36;78.82;95554.38;5028183;28;20543;-74
2021/03/09 05:29:30;;;;;;;16.13;13.30;;;;;;;-3.33;78.63;95561.88;5024843;28;20177;-74
2021/03/09 05:31:55;;;;;;;21.23;14.40;;;;;;;-3.34;78.81;95561.06;5025123;28;20209;-74
2021/03/09 05:34:20;;;;;;;20.07;13.63;;;;;;;-3.31;79.34;95560.09;5029115;28;20193;-75
2021/03/09 05:36:46;;;;;;;20.90;13.30;;;;;;;-3.25;78.79;95557.31;5013615;28;20621;-74
2021/03/09 05:39:11;;;;;;;20.23;14.20;;;;;;;-3.13;78.68;95551.69;5028413;28;20270;-74
2021/03/09 05:41:37;;;;;;;20.43;13.53;;;;;;;-3.21;78.93;95556.28;5017469;28;20205;-74
2021/03/09 05:44:03;;;;;;;19.27;13.43;;;;;;;-3.19;79.09;95557.84;5025497;28;20649;-74
2021/03/09 05:46:29;;;;;;;19.27;13.80;;;;;;;-3.19;79.51;95562.94;5029164;28;20222;-74
2021/03/09 05:48:54;;;;;;;23.03;13.93;;;;;;;-3.21;78.83;95562.16;5033940;28;20588;-75
2021/03/09 05:51:20;;;;;;;24.03;15.80;;;;;;;-3.18;79.39;95563.75;5020941;28;20207;-73
2021/03/09 05:53:46;;;;;;;21.70;15.33;;;;;;;-3.18;79.07;95569.69;5027840;28;20180;-73
2021/03/09 05:56:11;;;;;;;22.13;14.10;;;;;;;-3.19;79.54;95570.53;5020610;28;20610;-73
2021/03/09 05:58:36;;;;;;;22.13;13.80;;;;;;;-3.20;79.38;95576.53;5027946;28;20199;-72
2021/03/09 06:01:02;;;;;;;19.27;13.20;;;;;;;-3.17;79.47;95573.88;5024506;28;20229;-75
2021/03/09 06:03:27;;;;;;;18.67;12.43;;;;;;;-3.10;79.37;95582.03;5022032;28;20272;-73
2021/03/09 06:05:53;;;;;;;17.50;11.50;;;;;;;-3.08;78.85;95579.47;5020303;28;20555;-73
2021/03/09 06:08:19;;;;;;;22.27;13.77;;;;;;;-3.11;79.01;95575.31;5029033;28;20179;-73
2021/03/09 06:10:44;;;;;;;20.03;13.87;;;;;;;-3.07;79.41;95568.41;5043270;28;20207;-73
2021/03/09 06:13:32;;;;;;;18.10;12.43;;;;;;;-3.03;78.49;95577.53;5045304;28;20184;-73
2021/03/09 06:15:58;;;;;;;18.87;13.27;;;;;;;-3.06;78.87;95562.44;4999175;28;20669;-73
2021/03/09 06:18:24;;;;;;;16.83;12.47;;;;;;;-2.98;79.08;95573.09;5038203;28;20193;-74
2021/03/09 06:20:49;;;;;;;18.87;13.00;;;;;;;-2.88;78.36;95571.81;5032396;28;20215;-75
2021/03/09 06:23:26;;;;;;;19.17;13.70;;;;;;;-2.89;79.11;95570.97;5036163;28;20195;-74
2021/03/09 06:25:51;;;;;;;23.40;13.90;;;;;;;-2.80;78.42;95574.84;5021570;28;20667;-74
2021/03/09 06:28:28;;;;;;;19.73;13.07;;;;;;;-2.64;78.26;95575.81;5022560;28;20215;-74
2021/03/09 06:30:54;;;;;;;17.90;13.27;;;;;;;-2.62;78.08;95578.28;5029694;28;20205;-73
2021/03/09 06:33:27;;;;;;;24.60;14.03;;;;;;;-2.51;77.60;95578.63;5019963;28;20193;-74
2021/03/09 06:35:52;;;;;;;19.23;14.10;;;;;;;-2.45;77.93;95575.00;5022655;28;20193;-74
2021/03/09 06:38:22;;;;;;;18.40;13.40;;;;;;;-2.31;77.74;95582.81;5027770;28;20184;-74
2021/03/09 06:41:14;;;;;;;22.43;14.90;;;;;;;-2.17;77.01;95569.50;5041026;28;20237;-74
2021/03/09 06:43:41;;;;;;;19.93;14.60;;;;;;;-2.06;76.58;95573.19;5040195;28;20191;-73
2021/03/09 06:46:10;;;;;;;20.20;13.77;;;;;;;-2.00;76.76;95577.16;5023971;28;20191;-74
2021/03/09 06:48:38;;;;;;;18.90;14.40;;;;;;;-1.91;76.09;95575.91;5040508;28;20194;-73
2021/03/09 06:51:03;;;;;;;20.13;13.90;;;;;;;-1.82;76.18;95576.31;5016870;28;20231;-73
2021/03/09 06:53:29;;;;;;;15.80;12.90;;;;;;;-1.65;75.93;95577.25;5039103;28;20228;-74
2021/03/09 06:55:54;;;;;;;17.50;13.53;;;;;;;-1.58;75.48;95581.16;5028046;28;20251;-74
2021/03/09 06:58:27;;;;;;;18.50;13.23;;;;;;;-1.39;75.27;95578.53;5029662;28;20252;-73
2021/03/09 07:00:52;;;;;;;19.07;13.97;;;;;;;-1.33;74.90;95585.84;5000465;28;20210;-73
2021/03/09 07:03:35;;;;;;;19.47;13.93;;;;;;;-1.24;74.89;95587.94;5040121;28;20186;-73
2021/03/09 07:06:00;;;;;;;19.33;13.63;;;;;;;-1.16;74.96;95590.94;5025777;28;20177;-73
2021/03/09 07:08:26;;;;;;;18.10;12.83;;;;;;;-1.02;74.35;95598.75;5014633;28;20212;-74
2021/03/09 07:10:52;;;;;;;17.93;12.93;;;;;;;-0.82;73.87;95597.75;5020148;28;20202;-74
2021/03/09 07:13:21;;;;;;;19.33;13.03;;;;;;;-0.75;73.67;95588.88;5042611;28;20727;-73
2021/03/09 07:15:48;;;;;;;16.63;12.80;;;;;;;-0.74;73.33;95593.06;5030239;28;20216;-74
2021/03/09 07:18:15;;;;;;;17.10;12.90;;;;;;;-0.65;73.38;95596.88;5039631;28;20199;-74
2021/03/09 07:20:40;;;;;;;18.67;13.17;;;;;;;-0.63;73.31;95600.16;5038796;28;20294;-74
2021/03/09 07:23:06;;;;;;;20.80;12.87;;;;;;;-0.62;73.35;95597.56;5036886;28;20680;-75
2021/03/09 07:25:32;;;;;;;17.93;13.80;;;;;;;-0.59;72.76;95597.41;5012972;28;20210;-74
2021/03/09 07:28:00;;;;;;;18.40;14.03;;;;;;;-0.51;73.11;95604.66;5040402;28;20225;-74
2021/03/09 07:30:28;;;;;;;16.93;12.43;;;;;;;-0.43;72.79;95605.09;5011986;28;20665;-74
2021/03/09 07:32:56;;;;;;;26.30;17.47;;;;;;;-0.38;72.61;95604.84;5019696;28;20245;-73
2021/03/09 07:35:27;;;;;;;25.90;17.60;;;;;;;-0.31;71.73;95607.00;5035620;28;20212;-74
2021/03/09 07:37:53;;;;;;;30.07;19.07;;;;;;;-0.26;71.64;95616.16;5024644;28;20195;-75
2021/03/09 07:40:21;;;;;;;19.00;13.53;;;;;;;-0.22;71.96;95613.34;5019438;28;20705;-74
2021/03/09 07:42:47;;;;;;;20.43;13.60;;;;;;;-0.13;71.63;95610.31;5039250;28;20218;-75
2021/03/09 07:45:17;;;;;;;16.77;12.43;;;;;;;0.03;71.11;95610.31;5025859;28;20206;-75
2021/03/09 07:47:46;;;;;;;21.17;11.90;;;;;;;0.08;70.75;95607.50;5038106;28;20182;-74
2021/03/09 07:50:14;;;;;;;15.17;11.73;;;;;;;-0.01;70.57;95608.81;5022065;28;20214;-75
2021/03/09 07:53:08;;;;;;;15.90;11.43;;;;;;;0.16;70.16;95611.28;5045145;28;20646;-75
2021/03/09 07:55:38;;;;;;;14.10;10.97;;;;;;;0.25;70.03;95608.22;5018597;28;20183;-74
2021/03/09 07:58:20;;;;;;;14.70;11.13;;;;;;;0.35;69.61;95612.84;5021274;28;20232;-75
2021/03/09 08:01:07;;;;;;;14.40;11.17;;;;;;;0.48;69.07;95612.09;5033141;28;20234;-75
2021/03/09 08:03:35;;;;;;;14.23;10.37;;;;;;;0.68;68.90;95612.69;5038489;28;20662;-75
2021/03/09 08:06:08;;;;;;;16.20;10.13;;;;;;;0.78;68.13;95613.81;5028945;28;20190;-75
2021/03/09 08:08:43;;;;;;;15.43;11.33;;;;;;;0.94;67.78;95611.22;5045028;28;20183;-74
2021/03/09 08:11:22;;;;;;;16.37;11.57;;;;;;;1.07;67.44;95610.44;5022411;28;20213;-74
2021/03/09 08:14:03;;;;;;;14.57;9.73;;;;;;;1.19;66.99;95613.19;5020730;28;20190;-75
2021/03/09 08:16:38;;;;;;;20.73;14.33;;;;;;;1.28;66.45;95617.78;5018861;28;20182;-75
2021/03/09 08:19:09;;;;;;;24.13;15.17;;;;;;;1.42;66.03;95610.13;5026272;28;20190;-74
2021/03/09 08:21:40;;;;;;;14.03;10.70;;;;;;;1.61;65.88;95622.66;5007568;28;20739;-74
2021/03/09 08:24:07;;;;;;;13.50;9.57;;;;;;;1.67;64.99;95619.69;5030486;28;20740;-75
2021/03/09 08:26:32;;;;;;;12.40;9.73;;;;;;;1.74;65.05;95620.16;5033203;28;20195;-75
2021/03/09 08:28:57;;;;;;;17.70;11.10;;;;;;;1.86;64.58;95622.81;5031941;28;20553;-75
2021/03/09 08:31:26;;;;;;;11.67;9.23;;;;;;;1.95;63.96;95614.59;5023926;28;20305;-74
2021/03/09 08:33:53;;;;;;;15.10;9.47;;;;;;;2.07;63.68;95619.88;5029831;28;20261;-74
2021/03/09 08:36:24;;;;;;;14.33;9.90;;;;;;;2.14;63.23;95613.44;5011003;28;20553;-74
2021/03/09 08:39:02;;;;;;;12.23;8.87;;;;;;;2.08;62.47;95621.50;5025962;28;20194;-74
2021/03/09 08:41:41;;;;;;;10.13;8.93;;;;;;;2.27;61.81;95627.13;5027419;28;20213;-74
2021/03/09 08:44:23;;;;;;;9.80;7.97;;;;;;;2.24;61.54;95614.53;5031253;28;20198;-74
2021/03/09 08:46:54;;;;;;;12.03;8.80;;;;;;;2.27;61.05;95620.25;5024270;28;20216;-74
2021/03/09 08:49:35;;;;;;;12.07;8.10;;;;;;;2.45;61.36;95615.72;5022049;28;20187;-74
2021/03/09 08:52:01;;;;;;;10.77;7.73;;;;;;;2.45;61.33;95622.59;5027176;28;20245;-73
2021/03/09 08:54:30;;;;;;;10.50;8.17;;;;;;;2.58;60.41;95620.09;5047219;28;20253;-74
2021/03/09 08:56:57;;;;;;;11.60;7.80;;;;;;;2.73;59.63;95617.34;5033401;28;20210;-74
2021/03/09 08:59:27;;;;;;;11.97;8.10;;;;;;;2.82;59.78;95609.06;5029611;28;20183;-74
2021/03/09 09:01:54;;;;;;;10.50;7.57;;;;;;;2.83;58.63;95612.50;5031115;28;20705;-74
2021/03/09 09:04:20;;;;;;;11.33;7.20;;;;;;;2.98;58.15;95613.22;5013431;28;20283;-74
2021/03/09 09:06:46;;;;;;;10.57;7.90;;;;;;;3.14;57.87;95611.28;5021305;28;20644;-74
2021/03/09 09:09:12;;;;;;;11.87;7.87;;;;;;;2.79;57.21;95601.59;5038081;28;20622;-74
2021/03/09 09:11:37;;;;;;;9.23;6.97;;;;;;;3.09;56.64;95611.63;5016258;28;20290;-74
2021/03/09 09:14:16;;;;;;;12.53;8.13;;;;;;;3.32;56.59;95611.81;5014648;28;20301;-74
2021/03/09 09:16:41;;;;;;;13.37;9.30;;;;;;;3.34;56.60;95605.66;5029322;28;20524;-74
2021/03/09 09:19:07;;;;;;;13.77;8.13;;;;;;;3.46;56.51;95609.16;5047849;28;20221;-76
2021/03/09 09:21:42;;;;;;;10.27;7.80;;;;;;;3.57;56.23;95604.13;5033844;28;20270;-75
2021/03/09 09:24:15;;;;;;;11.43;8.53;;;;;;;3.57;55.52;95613.59;5030124;28;20236;-76
2021/03/09 09:26:41;;;;;;;10.70;8.07;;;;;;;3.83;55.32;95609.25;5031591;28;20199;-75
2021/03/09 09:29:07;;;;;;;10.03;8.13;;;;;;;4.02;54.35;95613.94;5020947;28;20784;-75
2021/03/09 09:31:32;;;;;;;10.50;8.00;;;;;;;4.09;53.23;95610.03;5035533;28;20201;-75
2021/03/09 09:33:57;;;;;;;11.67;8.33;;;;;;;3.94;54.54;95617.03;5021209;28;20558;-76
2021/03/09 09:36:24;;;;;;;9.13;7.50;;;;;;;4.01;54.71;95617.44;5028712;28;20186;-76
2021/03/09 09:38:53;;;;;;;10.33;7.57;;;;;;;3.95;53.68;95613.53;5013663;28;20544;-75
2021/03/09 09:41:20;;;;;;;7.97;6.27;;;;;;;4.06;52.54;95617.91;5022356;28;20207;-76
2021/03/09 09:43:45;;;;;;;8.63;6.57;;;;;;;4.18;51.88;95611.94;5003919;28;20226;-75
2021/03/09 09:46:25;;;;;;;13.00;7.50;;;;;;;4.12;53.08;95623.47;5028915;28;20210;-75
2021/03/09 09:48:52;;;;;;;10.90;7.83;;;;;;;4.07;53.42;95620.41;5026314;28;20711;-75
2021/03/09 09:51:19;;;;;;;9.23;7.10;;;;;;;4.32;52.82;95619.50;5006894;28;20229;-75
2021/03/09 09:53:47;;;;;;;8.10;6.80;;;;;;;4.39;51.76;95619.91;5029576;28;20704;-75
2021/03/09 09:56:14;;;;;;;9.77;7.83;;;;;;;4.14;51.99;95619.03;5030980;28;20683;-74
2021/03/09 09:58:44;;;;;;;9.70;7.70;;;;;;;4.18;53.04;95614.50;5026627;28;20189;-75
2021/03/09 10:01:11;;;;;;;10.80;7.87;;;;;;;4.41;51.64;95611.13;5021955;28;20222;-75
2021/03/09 10:04:02;;;;;;;10.50;8.33;;;;;;;4.54;51.03;95609.34;5020229;28;20241;-75
2021/03/09 10:06:29;;;;;;;9.80;7.37;;;;;;;4.64;50.43;95606.94;5014353;28;20276;-75
2021/03/09 10:08:55;;;;;;;12.50;8.40;;;;;;;4.62;50.67;95608.81;5003238;28;20206;-75
2021/03/09 10:11:22;;;;;;;9.37;7.60;;;;;;;4.74;50.80;95604.53;5043215;28;20628;-75
2021/03/09 10:13:47;;;;;;;9.70;8.03;;;;;;;4.68;50.38;95610.94;5036516;28;20182;-75
2021/03/09 10:16:12;;;;;;;10.23;8.00;;;;;;;4.93;50.16;95611.72;5032005;28;20662;-74
2021/03/09 10:18:38;;;;;;;9.43;8.00;;;;;;;5.12;50.57;95617.16;5015154;28;20544;-75
2021/03/09 10:21:12;;;;;;;10.30;8.50;;;;;;;5.34;49.54;95616.41;5020680;28;20217;-75
2021/03/09 10:23:55;;;;;;;10.90;8.40;;;;;;;4.82;50.79;95615.91;5022047;28;20186;-72
2021/03/09 10:26:39;;;;;;;9.90;8.33;;;;;;;4.74;51.19;95612.25;5022021;28;20212;-75
2021/03/09 10:29:17;;;;;;;10.43;8.43;;;;;;;4.49;51.32;95615.75;5008248;28;20266;-73
2021/03/09 10:31:59;;;;;;;13.33;8.73;;;;;;;4.61;51.08;95607.16;5038803;28;20190;-74
2021/03/09 10:34:37;;;;;;;9.97;7.87;;;;;;;4.71;51.20;95612.47;5019188;28;20218;-74
2021/03/09 10:37:03;;;;;;;10.73;8.83;;;;;;;4.51;52.00;95611.34;5023010;28;20274;-76
2021/03/09 10:39:36;;;;;;;12.00;8.20;;;;;;;4.74;51.39;95605.34;5038336;28;20678;-75
2021/03/09 10:42:31;;;;;;;11.27;8.57;;;;;;;4.59;51.65;95603.03;5027015;28;20660;-75
2021/03/09 10:44:59;;;;;;;12.73;8.40;;;;;;;4.95;50.81;95602.16;5018796;28;20194;-75
2021/03/09 10:47:25;;;;;;;9.80;7.87;;;;;;;5.25;50.25;95605.03;5012987;28;20666;-74
2021/03/09 10:49:51;;;;;;;9.50;8.30;;;;;;;5.50;49.32;95608.38;5038232;28;20266;-74
2021/03/09 10:52:16;;;;;;;10.50;7.87;;;;;;;5.24;48.03;95597.44;5014405;28;20183;-74
2021/03/09 10:54:41;;;;;;;11.93;8.83;;;;;;;5.68;46.12;95600.06;5032507;28;20677;-73
2021/03/09 10:57:09;;;;;;;9.00;7.67;;;;;;;5.68;45.11;95604.41;5022169;28;20222;-74
2021/03/09 10:59:35;;;;;;;9.60;8.10;;;;;;;5.54;45.11;95599.47;5012095;28;20277;-74
2021/03/09 11:02:00;;;;;;;10.80;7.90;;;;;;;5.39;46.75;95610.00;5041567;28;20784;-74
2021/03/09 11:04:26;;;;;;;10.83;8.00;;;;;;;5.47;46.93;95604.25;5018192;28;20183;-74
2021/03/09 11:06:51;;;;;;;10.87;8.03;;;;;;;5.39;46.39;95602.28;5032922;28;20218;-73
2021/03/09 11:09:17;;;;;;;10.57;8.30;;;;;;;5.55;45.82;95599.34;5021662;28;20190;-74
2021/03/09 11:11:43;;;;;;;9.53;7.70;;;;;;;5.66;45.17;95601.94;5005758;28;20229;-74
2021/03/09 11:14:09;;;;;;;8.60;7.43;;;;;;;6.14;43.43;95595.75;5027866;28;20198;-75
2021/03/09 11:16:34;;;;;;;14.33;8.40;;;;;;;5.88;44.96;95600.31;5029372;28;20195;-74
2021/03/09 11:19:00;;;;;;;8.10;7.27;;;;;;;6.03;45.09;95594.00;5039310;28;20194;-74
2021/03/09 11:21:28;;;;;;;11.53;7.90;;;;;;;6.04;44.75;95600.00;5032268;28;20558;-74
2021/03/09 11:23:54;;;;;;;10.37;7.80;;;;;;;6.17;43.07;95592.91;5013206;28;20198;-74
2021/03/09 11:26:21;;;;;;;11.50;8.90;;;;;;;6.57;43.84;95590.63;5011910;28;20187;-74
2021/03/09 11:28:47;;;;;;;9.93;8.77;;;;;;;5.85;44.86;95600.56;5038263;28;20198;-74